createdAt,value
2023-04-17T00:01:45.032Z,19.02
2023-04-17T00:04:13.225Z,19.00
2023-04-17T00:06:43.405Z,18.85
2023-04-17T00:09:11.269Z,18.83
2023-04-17T00:11:38.574Z,19.88
2023-04-17T00:14:05.961Z,19.60
2023-04-17T00:16:32.813Z,20.83
2023-04-17T00:18:59.617Z,20.30
2023-04-17T00:21:30.093Z,19.73
2023-04-17T00:23:57.052Z,19.13
2023-04-17T00:26:24.273Z,20.02
2023-04-17T00:28:51.886Z,20.30
2023-04-17T00:31:18.916Z,20.05
2023-04-17T00:33:46.483Z,21.15
2023-04-17T00:36:13.912Z,21.52
2023-04-17T00:38:40.895Z,21.35
2023-04-17T00:41:07.736Z,21.23
2023-04-17T00:43:37.465Z,21.80
2023-04-17T00:46:05.740Z,21.60
2023-04-17T00:48:34.114Z,21.77
2023-04-17T00:51:03.211Z,22.10
2023-04-17T00:53:31.854Z,20.95
2023-04-17T00:56:00.021Z,18.90
2023-04-17T00:58:27.369Z,20.38
2023-04-17T01:00:54.230Z,20.17
2023-04-17T01:03:21.837Z,20.63
2023-04-17T01:05:51.570Z,20.63
2023-04-17T01:08:19.166Z,21.85
2023-04-17T01:10:46.890Z,20.63
2023-04-17T01:13:13.888Z,21.85
2023-04-17T01:15:43.001Z,20.92
2023-04-17T01:18:10.260Z,20.88
2023-04-17T01:20:37.676Z,21.17
2023-04-17T01:23:04.564Z,20.20
2023-04-17T01:25:31.442Z,21.35
2023-04-17T01:28:00.945Z,22.45
2023-04-17T01:30:29.418Z,21.30
2023-04-17T01:33:02.963Z,21.02
2023-04-17T01:35:29.816Z,21.88
2023-04-17T01:37:57.333Z,22.70
2023-04-17T01:40:25.213Z,22.42
2023-04-17T01:42:52.012Z,23.00
2023-04-17T01:45:18.836Z,21.17
2023-04-17T01:47:45.767Z,21.50
2023-04-17T01:50:13.276Z,21.38
2023-04-17T01:52:40.176Z,22.30
2023-04-17T01:55:07.416Z,21.92
2023-04-17T01:57:34.327Z,22.25
2023-04-17T02:00:01.148Z,22.17
2023-04-17T02:02:28.072Z,22.60
2023-04-17T02:04:54.985Z,22.92
2023-04-17T02:07:21.729Z,22.08
2023-04-17T02:09:48.524Z,22.65
2023-04-17T02:12:16.252Z,24.38
2023-04-17T02:14:43.293Z,23.52
2023-04-17T02:17:10.461Z,22.02
2023-04-17T02:19:37.285Z,23.33
2023-04-17T02:22:04.278Z,22.38
2023-04-17T02:24:31.516Z,23.00
2023-04-17T02:27:00.569Z,24.35
2023-04-17T02:29:27.698Z,23.27
2023-04-17T02:31:54.950Z,25.02
2023-04-17T02:34:21.761Z,23.45
2023-04-17T02:36:51.087Z,23.30
2023-04-17T02:39:19.624Z,23.90
2023-04-17T02:41:46.626Z,24.50
2023-04-17T02:44:13.518Z,24.42
2023-04-17T02:46:40.493Z,24.80
2023-04-17T02:49:09.468Z,25.67
2023-04-17T02:51:36.530Z,23.95
2023-04-17T02:54:03.587Z,26.55
2023-04-17T02:56:30.557Z,23.80
2023-04-17T02:58:57.511Z,25.00
2023-04-17T03:01:26.436Z,24.85
2023-04-17T03:03:53.597Z,25.92
2023-04-17T03:06:21.613Z,25.42
2023-04-17T03:08:48.632Z,27.02
2023-04-17T03:11:16.363Z,26.45
2023-04-17T03:13:43.736Z,26.80
2023-04-17T03:16:10.755Z,26.17
2023-04-17T03:18:42.149Z,25.63
2023-04-17T03:21:09.242Z,27.20
2023-04-17T03:23:36.669Z,26.48
2023-04-17T03:26:03.524Z,26.92
2023-04-17T03:28:33.002Z,27.58
2023-04-17T03:31:01.287Z,28.23
2023-04-17T03:33:28.182Z,30.40
2023-04-17T03:35:58.024Z,29.27
2023-04-17T03:38:27.434Z,28.25
2023-04-17T03:40:54.918Z,29.40
2023-04-17T03:43:24.512Z,29.55
2023-04-17T03:45:51.700Z,30.00
2023-04-17T03:48:18.823Z,29.38
2023-04-17T03:50:48.204Z,29.23
2023-04-17T03:53:15.468Z,31.27
2023-04-17T03:55:42.325Z,30.58
2023-04-17T03:58:14.629Z,30.05
2023-04-17T04:00:41.633Z,30.42
2023-04-17T04:03:11.250Z,29.67
2023-04-17T04:05:41.769Z,30.85
2023-04-17T04:08:10.703Z,29.98
2023-04-17T04:10:50.561Z,29.88
2023-04-17T04:13:22.426Z,30.15
2023-04-17T04:15:56.619Z,29.75
2023-04-17T04:18:29.167Z,29.23
2023-04-17T04:20:56.392Z,30.70
2023-04-17T04:23:28.081Z,32.00
2023-04-17T04:25:56.891Z,29.48
2023-04-17T04:28:44.852Z,30.20
2023-04-17T04:31:20.752Z,29.70
2023-04-17T04:33:47.747Z,29.90
2023-04-17T04:36:20.921Z,31.08
2023-04-17T04:38:59.831Z,30.15
2023-04-17T04:41:33.952Z,30.08
2023-04-17T04:44:03.002Z,29.38
2023-04-17T04:46:30.685Z,28.80
2023-04-17T04:48:58.806Z,28.95
2023-04-17T04:51:26.825Z,28.20
2023-04-17T04:53:54.245Z,24.30
2023-04-17T04:56:22.496Z,25.92
2023-04-17T04:58:50.341Z,27.17
2023-04-17T05:01:18.637Z,26.20
2023-04-17T05:03:46.721Z,28.10
2023-04-17T05:06:20.109Z,26.77
2023-04-17T05:08:52.023Z,28.17
2023-04-17T05:11:19.209Z,26.42
2023-04-17T05:13:46.168Z,27.42
2023-04-17T05:16:33.251Z,27.10
2023-04-17T05:19:00.376Z,26.83
2023-04-17T05:21:44.988Z,25.65
2023-04-17T05:24:12.685Z,28.50
2023-04-17T05:26:39.667Z,27.38
2023-04-17T05:29:07.410Z,27.23
2023-04-17T05:31:34.459Z,26.95
2023-04-17T05:34:06.113Z,28.15
2023-04-17T05:36:33.190Z,25.38
2023-04-17T05:39:03.832Z,24.75
2023-04-17T05:41:31.386Z,26.70
2023-04-17T05:43:58.238Z,29.27
2023-04-17T05:46:27.890Z,27.65
2023-04-17T05:48:55.056Z,28.35
2023-04-17T05:51:23.218Z,25.55
2023-04-17T05:53:50.470Z,24.35
2023-04-17T05:56:17.299Z,27.83
2023-04-17T05:58:44.182Z,28.55
2023-04-17T06:01:13.035Z,28.42
2023-04-17T06:03:40.121Z,29.17
2023-04-17T06:06:14.804Z,29.20
2023-04-17T06:08:41.591Z,29.23
2023-04-17T06:11:08.452Z,29.33
2023-04-17T06:13:35.377Z,29.95
2023-04-17T06:16:02.276Z,29.80
2023-04-17T06:18:29.178Z,28.48
2023-04-17T06:20:56.351Z,27.98
2023-04-17T06:23:23.196Z,27.67
2023-04-17T06:25:50.324Z,28.42
2023-04-17T06:28:18.631Z,26.55
2023-04-17T06:30:46.232Z,25.23
2023-04-17T06:33:13.537Z,27.98
2023-04-17T06:35:41.022Z,28.23
2023-04-17T06:38:34.360Z,26.50
2023-04-17T06:41:01.619Z,27.50
2023-04-17T06:43:28.560Z,28.42
2023-04-17T06:45:55.849Z,26.83
2023-04-17T06:48:22.714Z,26.88
2023-04-17T06:50:49.758Z,26.88
2023-04-17T06:53:16.584Z,25.27
2023-04-17T06:55:43.565Z,26.55
2023-04-17T06:58:10.410Z,27.50
2023-04-17T07:00:37.230Z,26.85
2023-04-17T07:03:05.304Z,26.73
2023-04-17T07:05:32.273Z,27.08
2023-04-17T07:07:59.060Z,25.38
2023-04-17T07:10:26.097Z,25.75
2023-04-17T07:12:52.922Z,25.58
2023-04-17T07:15:20.352Z,24.83
2023-04-17T07:17:49.751Z,24.77
2023-04-17T07:20:16.936Z,23.45
2023-04-17T07:22:43.823Z,23.80
2023-04-17T07:25:10.894Z,23.02
2023-04-17T07:27:39.320Z,22.48
2023-04-17T07:30:08.078Z,22.15
2023-04-17T07:32:34.927Z,21.48
2023-04-17T07:35:04.615Z,22.70
2023-04-17T07:37:31.668Z,21.33
2023-04-17T07:39:58.509Z,21.77
2023-04-17T07:42:29.337Z,31.10
2023-04-17T07:44:57.044Z,24.42
2023-04-17T07:47:25.880Z,25.90
2023-04-17T07:49:52.703Z,24.77
2023-04-17T07:52:19.537Z,22.58
2023-04-17T07:54:46.543Z,22.45
2023-04-17T07:57:15.041Z,23.75
2023-04-17T07:59:42.163Z,27.02
2023-04-17T08:02:09.220Z,28.25
2023-04-17T08:04:37.742Z,35.25
2023-04-17T08:07:04.669Z,24.50
2023-04-17T08:09:31.465Z,20.85
2023-04-17T08:11:58.493Z,22.38
2023-04-17T08:14:25.740Z,22.10
2023-04-17T08:16:53.030Z,20.73
2023-04-17T08:19:20.098Z,20.92
2023-04-17T08:21:51.758Z,21.95
2023-04-17T08:24:19.989Z,21.33
2023-04-17T08:26:47.924Z,19.73
2023-04-17T08:29:15.262Z,18.73
2023-04-17T08:31:45.227Z,19.10
2023-04-17T08:34:15.033Z,17.65
2023-04-17T08:36:43.180Z,16.92
2023-04-17T08:39:12.346Z,18.85
2023-04-17T08:41:45.315Z,18.15
2023-04-17T08:44:12.188Z,17.58
2023-04-17T08:46:39.307Z,17.48
2023-04-17T08:49:06.587Z,18.45
2023-04-17T08:51:35.452Z,17.55
2023-04-17T08:54:02.385Z,18.85
2023-04-17T08:56:29.715Z,17.38
2023-04-17T08:58:56.903Z,18.17
2023-04-17T09:01:28.422Z,17.35
2023-04-17T09:03:57.237Z,17.35
2023-04-17T09:06:24.424Z,17.33
2023-04-17T09:08:59.569Z,18.17
2023-04-17T09:11:27.964Z,16.75
2023-04-17T09:13:55.160Z,15.50
2023-04-17T09:16:24.660Z,16.90
2023-04-17T09:18:54.314Z,17.00
2023-04-17T09:21:27.602Z,16.98
2023-04-17T09:23:58.935Z,16.52
2023-04-17T09:26:27.902Z,15.32
2023-04-17T09:29:11.732Z,16.55
2023-04-17T09:31:43.400Z,16.45
2023-04-17T09:34:12.090Z,17.55
2023-04-17T09:36:43.704Z,16.25
2023-04-17T09:39:25.729Z,16.55
2023-04-17T09:42:04.305Z,14.97
2023-04-17T09:44:31.420Z,15.15
2023-04-17T09:47:00.392Z,13.45
2023-04-17T09:49:38.016Z,13.68
2023-04-17T09:52:06.065Z,11.55
2023-04-17T09:54:37.956Z,11.10
2023-04-17T09:57:09.667Z,16.25
2023-04-17T09:59:41.246Z,11.85
2023-04-17T10:02:09.763Z,21.02
2023-04-17T10:04:39.505Z,11.27
2023-04-17T10:07:06.585Z,11.30
2023-04-17T10:09:33.588Z,9.50
2023-04-17T10:12:02.636Z,5.38
2023-04-17T10:14:38.867Z,4.40
2023-04-17T10:17:26.114Z,5.45
2023-04-17T10:19:53.248Z,4.80
2023-04-17T10:22:28.426Z,4.30
2023-04-17T10:25:15.604Z,3.80
2023-04-17T10:27:45.525Z,4.18
2023-04-17T10:30:13.713Z,3.92
2023-04-17T10:32:46.748Z,4.50
2023-04-17T10:35:16.795Z,4.68
2023-04-17T10:37:49.784Z,4.15
2023-04-17T10:40:22.245Z,4.25
2023-04-17T10:43:07.595Z,4.70
2023-04-17T10:45:57.560Z,4.75
2023-04-17T10:48:46.279Z,4.50
2023-04-17T10:51:22.968Z,4.28
2023-04-17T10:53:58.997Z,4.90
2023-04-17T10:56:40.391Z,4.38
2023-04-17T10:59:15.873Z,3.90
2023-04-17T11:01:49.210Z,4.10
2023-04-17T11:04:21.576Z,4.28
2023-04-17T11:06:49.084Z,4.40
2023-04-17T11:09:16.420Z,4.35
2023-04-17T11:11:45.208Z,4.05
2023-04-17T11:14:20.268Z,4.28
2023-04-17T11:16:49.662Z,4.13
2023-04-17T11:19:22.929Z,3.85
2023-04-17T11:21:53.717Z,3.75
2023-04-17T11:24:28.344Z,3.78
2023-04-17T11:26:58.341Z,3.92
2023-04-17T11:29:26.412Z,3.80
2023-04-17T11:31:56.037Z,3.97
2023-04-17T11:34:25.035Z,3.65
2023-04-17T11:37:01.581Z,4.20
2023-04-17T11:39:30.739Z,4.05
2023-04-17T11:41:58.233Z,3.92
2023-04-17T11:44:26.528Z,3.92
2023-04-17T11:46:56.244Z,4.15
2023-04-17T11:49:31.133Z,4.13
2023-04-17T11:52:01.553Z,3.42
2023-04-17T11:54:30.158Z,3.70
2023-04-17T11:57:05.374Z,3.17
2023-04-17T11:59:33.586Z,3.63
2023-04-17T12:02:02.040Z,3.95
2023-04-17T12:04:30.328Z,4.13
2023-04-17T12:06:59.616Z,3.67
2023-04-17T12:09:31.588Z,3.55
2023-04-17T12:12:05.905Z,2.50
2023-04-17T12:14:33.103Z,2.88
2023-04-17T12:17:00.086Z,2.13
2023-04-17T12:19:27.692Z,2.67
2023-04-17T12:21:56.332Z,4.78
2023-04-17T12:24:25.546Z,3.78
2023-04-17T12:26:53.246Z,2.78
2023-04-17T12:29:29.390Z,2.40
2023-04-17T12:31:59.863Z,2.30
2023-04-17T12:34:28.007Z,2.25
2023-04-17T12:36:55.064Z,2.45
2023-04-17T12:39:21.928Z,2.60
2023-04-17T12:41:49.283Z,2.22
2023-04-17T12:44:16.208Z,2.40
2023-04-17T12:46:43.157Z,2.13
2023-04-17T12:49:10.467Z,1.80
2023-04-17T12:51:38.065Z,1.88
2023-04-17T12:54:05.510Z,2.00
2023-04-17T12:56:32.841Z,3.00
2023-04-17T12:59:02.617Z,3.63
2023-04-17T13:01:30.190Z,3.97
2023-04-17T13:03:57.566Z,3.35
2023-04-17T13:06:25.188Z,3.92
2023-04-17T13:08:52.102Z,3.17
2023-04-17T13:11:18.973Z,3.00
2023-04-17T13:13:45.885Z,3.08
2023-04-17T13:16:12.820Z,2.90
2023-04-17T13:18:40.370Z,2.75
2023-04-17T13:21:08.105Z,2.50
2023-04-17T13:23:35.173Z,2.63
2023-04-17T13:26:02.070Z,2.65
2023-04-17T13:28:29.079Z,5.03
2023-04-17T13:30:56.033Z,2.80
2023-04-17T13:33:23.110Z,2.97
2023-04-17T13:35:51.130Z,2.80
2023-04-17T13:38:18.342Z,3.80
2023-04-17T13:40:46.038Z,2.65
2023-04-17T13:43:12.997Z,2.03
2023-04-17T13:45:40.040Z,1.67
2023-04-17T13:48:07.491Z,1.80
2023-04-17T13:50:34.889Z,1.88
2023-04-17T13:53:01.897Z,1.40
2023-04-17T13:55:28.998Z,1.20
2023-04-17T13:57:57.155Z,2.25
2023-04-17T14:00:24.181Z,2.55
2023-04-17T14:02:51.294Z,3.70
2023-04-17T14:05:18.330Z,1.40
2023-04-17T14:07:45.318Z,2.83
2023-04-17T14:10:12.320Z,3.10
2023-04-17T14:12:39.681Z,3.30
2023-04-17T14:15:11.013Z,2.00
2023-04-17T14:17:42.978Z,1.65
2023-04-17T14:23:17.951Z,3.85
2023-04-17T14:25:54.160Z,1.30
2023-04-17T14:28:25.220Z,1.50
2023-04-17T14:30:57.253Z,1.20
2023-04-17T14:34:20.412Z,1.30
2023-04-17T14:39:40.313Z,1.70
2023-04-17T14:42:12.583Z,1.77
2023-04-17T14:50:56.030Z,1.17
2023-04-17T14:53:28.726Z,1.20
2023-04-17T14:56:02.556Z,1.30
2023-04-17T14:58:39.566Z,1.20
2023-04-17T15:01:20.904Z,1.13
2023-04-17T15:03:56.901Z,1.10
2023-04-17T15:06:37.179Z,1.35
2023-04-17T15:09:28.288Z,1.73
2023-04-17T15:13:19.114Z,1.50
2023-04-17T15:15:57.437Z,2.40
2023-04-17T15:18:32.263Z,3.40
2023-04-17T15:21:02.234Z,2.28
2023-04-17T15:23:42.194Z,1.73
2023-04-17T15:26:18.002Z,1.70
2023-04-17T15:28:50.558Z,1.67
2023-04-17T15:31:36.082Z,1.90
2023-04-17T15:36:58.551Z,1.48
2023-04-17T15:39:38.741Z,1.50
2023-04-17T15:42:10.698Z,1.50
2023-04-17T15:44:42.303Z,1.75
2023-04-17T15:47:29.453Z,1.55
2023-04-17T15:50:01.985Z,1.80
2023-04-17T15:52:34.845Z,2.00
2023-04-17T15:58:02.373Z,1.85
2023-04-17T16:08:27.056Z,2.78
2023-04-17T16:10:55.572Z,2.70
2023-04-17T16:13:22.984Z,2.50
2023-04-17T16:15:50.838Z,2.08
2023-04-17T16:18:17.827Z,2.40
2023-04-17T16:20:45.633Z,2.08
2023-04-17T16:23:12.631Z,1.60
2023-04-17T16:25:39.744Z,1.40
2023-04-17T16:28:06.885Z,1.58
2023-04-17T16:30:33.828Z,1.40
2023-04-17T16:33:01.719Z,1.58
2023-04-17T16:35:30.063Z,1.55
2023-04-17T16:37:57.071Z,1.60
2023-04-17T16:40:26.635Z,1.45
2023-04-17T16:42:53.804Z,1.70
2023-04-17T16:45:20.793Z,1.83
2023-04-17T16:47:49.860Z,1.60
2023-04-17T16:50:16.833Z,1.92
2023-04-17T16:52:44.235Z,1.77
2023-04-17T16:55:13.986Z,1.55
2023-04-17T16:57:45.646Z,1.90
2023-04-17T17:00:13.166Z,1.70
2023-04-17T17:02:40.720Z,1.98
2023-04-17T17:05:08.601Z,2.08
2023-04-17T17:07:35.644Z,2.20
2023-04-17T17:10:02.670Z,2.17
2023-04-17T17:12:29.660Z,2.55
2023-04-17T17:14:58.120Z,3.00
2023-04-17T17:17:25.238Z,2.90
2023-04-17T17:20:21.698Z,3.15
2023-04-17T17:22:48.586Z,2.78
2023-04-17T17:25:15.557Z,2.92
2023-04-17T17:27:42.582Z,3.03
2023-04-17T17:30:09.870Z,3.22
2023-04-17T17:32:36.887Z,3.55
2023-04-17T17:35:04.060Z,3.20
2023-04-17T17:37:31.014Z,4.55
2023-04-17T17:39:57.937Z,3.88
2023-04-17T17:42:24.930Z,3.85
2023-04-17T17:44:52.014Z,4.30
2023-04-17T17:47:19.192Z,4.40
2023-04-17T17:49:46.196Z,2.78
2023-04-17T17:52:13.406Z,2.58
2023-04-17T17:54:40.762Z,2.78
2023-04-17T17:57:13.168Z,2.80
2023-04-17T17:59:40.343Z,3.10
2023-04-17T18:02:07.465Z,3.25
2023-04-17T18:04:37.902Z,4.10
2023-04-17T18:07:04.892Z,2.70
2023-04-17T18:09:31.804Z,2.30
2023-04-17T18:11:59.014Z,2.75
2023-04-17T18:14:26.159Z,3.35
2023-04-17T18:16:53.230Z,2.97
2023-04-17T18:19:20.422Z,2.00
2023-04-17T18:21:47.890Z,2.13
2023-04-17T18:24:16.008Z,2.75
2023-04-17T18:26:43.067Z,2.30
2023-04-17T18:29:11.058Z,2.53
2023-04-17T18:31:38.129Z,2.25
2023-04-17T18:34:05.181Z,2.30
2023-04-17T18:36:32.296Z,2.25
2023-04-17T18:39:01.408Z,2.67
2023-04-17T18:41:28.546Z,2.42
2023-04-17T18:43:55.489Z,2.20
2023-04-17T18:46:24.143Z,1.98
2023-04-17T18:48:51.093Z,1.75
2023-04-17T18:51:18.138Z,1.50
2023-04-17T18:53:45.199Z,1.20
2023-04-17T18:56:15.176Z,1.27
2023-04-17T18:58:42.766Z,1.00
2023-04-17T19:01:10.583Z,1.35
2023-04-17T19:03:39.031Z,2.10
2023-04-17T19:06:06.917Z,1.98
2023-04-17T19:08:34.455Z,1.77
2023-04-17T19:11:02.011Z,1.70
2023-04-17T19:13:29.165Z,1.58
2023-04-17T19:15:56.161Z,1.63
2023-04-17T19:18:23.348Z,2.30
2023-04-17T19:20:50.363Z,3.08
2023-04-17T19:23:17.472Z,2.40
2023-04-17T19:25:44.502Z,3.20
2023-04-17T19:28:13.789Z,3.03
2023-04-17T19:30:40.801Z,2.30
2023-04-17T19:33:07.885Z,2.58
2023-04-17T19:35:34.893Z,2.05
2023-04-17T19:38:02.099Z,2.10
2023-04-17T19:40:29.341Z,2.22
2023-04-17T19:43:01.100Z,2.22
2023-04-17T19:45:28.608Z,2.40
2023-04-17T19:47:57.127Z,2.53
2023-04-17T19:50:27.252Z,2.42
2023-04-17T19:52:55.643Z,2.17
2023-04-17T19:55:22.989Z,2.20
2023-04-17T19:57:51.092Z,2.08
2023-04-17T20:00:18.385Z,1.75
2023-04-17T20:02:46.220Z,2.20
2023-04-17T20:05:13.334Z,2.53
2023-04-17T20:07:40.274Z,2.60
2023-04-17T20:10:07.837Z,2.42
2023-04-17T20:12:34.946Z,2.58
2023-04-17T20:15:02.000Z,2.40
2023-04-17T20:18:03.675Z,2.25
2023-04-17T20:20:36.750Z,2.78
2023-04-17T20:23:04.476Z,2.58
2023-04-17T20:25:31.776Z,4.60
2023-04-17T20:28:02.995Z,37.83
2023-04-17T20:30:30.418Z,6.68
2023-04-17T20:32:57.577Z,2.85
2023-04-17T20:35:24.809Z,2.47
2023-04-17T20:37:52.784Z,2.80
2023-04-17T20:40:20.259Z,3.22
2023-04-17T20:42:47.951Z,2.92
2023-04-17T20:45:16.379Z,2.80
2023-04-17T20:47:55.786Z,2.53
2023-04-17T20:50:24.935Z,3.05
2023-04-17T20:52:54.068Z,2.83
2023-04-17T20:55:21.380Z,2.80
2023-04-17T20:57:48.424Z,2.72
2023-04-17T21:00:16.232Z,3.10
2023-04-17T21:02:44.186Z,4.72
2023-04-17T21:05:14.872Z,4.40
2023-04-17T21:07:41.907Z,4.38
2023-04-17T21:10:09.035Z,3.78
2023-04-17T21:12:35.995Z,3.50
2023-04-17T21:15:03.015Z,3.38
2023-04-17T21:17:30.076Z,2.97
2023-04-17T21:19:57.056Z,2.90
2023-04-17T21:22:24.372Z,3.22
2023-04-17T21:24:51.679Z,3.17
2023-04-17T21:27:19.784Z,3.92
2023-04-17T21:29:46.763Z,3.50
2023-04-17T21:32:13.859Z,3.70
2023-04-17T21:34:41.437Z,3.78
2023-04-17T21:37:08.492Z,3.72
2023-04-17T21:39:35.793Z,4.05
2023-04-17T21:42:02.952Z,4.05
2023-04-17T21:44:29.938Z,4.10
2023-04-17T21:46:56.923Z,4.15
2023-04-17T21:49:23.998Z,4.20
2023-04-17T21:51:51.125Z,3.83
2023-04-17T21:54:18.165Z,3.72
2023-04-17T21:56:45.413Z,3.75
2023-04-17T21:59:12.329Z,4.18
2023-04-17T22:01:39.481Z,3.45
2023-04-17T22:04:06.695Z,3.60
2023-04-17T22:06:37.531Z,3.85
2023-04-17T22:09:08.675Z,4.10
2023-04-17T22:11:38.109Z,3.92
2023-04-17T22:14:05.295Z,4.30
2023-04-17T22:16:32.375Z,3.90
2023-04-17T22:18:59.321Z,4.30
2023-04-17T22:21:27.046Z,3.85
2023-04-17T22:23:54.024Z,3.97
2023-04-17T22:26:21.340Z,4.10
2023-04-17T22:28:48.558Z,4.35
2023-04-17T22:31:15.952Z,4.07
2023-04-17T22:33:43.253Z,4.40
2023-04-17T22:36:10.204Z,4.55
2023-04-17T22:38:37.262Z,4.60
2023-04-17T22:41:05.192Z,4.53
2023-04-17T22:43:32.323Z,4.40
2023-04-17T22:45:59.304Z,4.88
2023-04-17T22:48:27.928Z,4.43
2023-04-17T22:50:56.507Z,6.10
2023-04-17T22:53:29.369Z,5.75
2023-04-17T22:56:04.014Z,6.47
2023-04-17T22:58:32.247Z,6.80
2023-04-17T23:00:59.970Z,6.03
2023-04-17T23:03:27.019Z,6.43
2023-04-17T23:05:54.363Z,6.45
2023-04-17T23:08:21.804Z,6.80
2023-04-17T23:10:58.010Z,6.43
2023-04-17T23:13:25.788Z,5.80
2023-04-17T23:15:52.874Z,6.32
2023-04-17T23:18:20.235Z,6.72
2023-04-17T23:20:47.423Z,6.68
2023-04-17T23:23:14.564Z,6.47
2023-04-17T23:25:41.834Z,6.88
2023-04-17T23:28:08.866Z,6.75
2023-04-17T23:30:35.888Z,6.57
2023-04-17T23:33:02.977Z,6.78
2023-04-17T23:35:29.946Z,6.70
2023-04-17T23:37:56.937Z,6.50
2023-04-17T23:40:24.049Z,5.78
2023-04-17T23:42:54.096Z,6.07
2023-04-17T23:45:21.346Z,5.97
2023-04-17T23:47:48.378Z,6.85
2023-04-17T23:50:15.605Z,5.80
2023-04-17T23:52:42.817Z,6.20
2023-04-17T23:55:09.875Z,6.63
2023-04-17T23:57:38.099Z,6.63
